Time,TemperatureF,DewpointF,PressureIn,WindDirection,WindDirectionDegrees,WindSpeedMPH,WindSpeedGustMPH,Humidity,HourlyPrecipIn,Conditions,Clouds,dailyrainin,SoftwareType,DateUTC
2014-04-17 00:01:00,23.1,16.4,30.67,West,270,0.0,0.0,75,0.00,,,0.00,WUHU216HW,2014-04-17 04:01:00,
2014-04-17 00:02:00,23.1,16.4,30.67,West,270,0.0,0.0,75,0.00,,,0.00,WUHU216HW,2014-04-17 04:02:00,
2014-04-17 00:03:00,23.1,16.4,30.67,West,270,0.0,0.0,75,0.00,,,0.00,WUHU216HW,2014-04-17 04:03:00,
2014-04-17 00:08:00,23.0,16.2,30.67,West,270,0.0,0.0,75,0.00,,,0.00,WUHU216HW,2014-04-17 04:08:00,
2014-04-17 00:14:00,22.8,16.3,30.67,West,270,0.0,0.0,76,0.00,,,0.00,WUHU216HW,2014-04-17 04:14:00,
2014-04-17 00:19:00,22.8,16.3,30.67,West,270,0.0,0.0,76,0.00,,,0.00,WUHU216HW,2014-04-17 04:19:00,
2014-04-17 00:24:00,22.8,16.3,30.68,West,270,0.0,0.0,76,0.00,,,0.00,WUHU216HW,2014-04-17 04:24:00,
2014-04-17 00:29:00,22.6,16.1,30.67,West,270,0.0,0.0,76,0.00,,,0.00,WUHU216HW,2014-04-17 04:29:00,
2014-04-17 00:34:00,22.8,16.3,30.68,West,270,0.0,0.0,76,0.00,,,0.00,WUHU216HW,2014-04-17 04:34:00,
2014-04-17 00:39:00,22.6,16.1,30.68,West,270,0.0,0.0,76,0.00,,,0.00,WUHU216HW,2014-04-17 04:39:00,
2014-04-17 00:44:00,22.4,16.0,30.67,West,270,0.0,0.0,76,0.00,,,0.00,WUHU216HW,2014-04-17 04:44:00,
2014-04-17 00:49:00,22.4,16.0,30.68,West,270,0.0,0.0,76,0.00,,,0.00,WUHU216HW,2014-04-17 04:49:00,
2014-04-17 00:54:00,22.4,16.0,30.68,West,270,0.0,0.0,76,0.00,,,0.00,WUHU216HW,2014-04-17 04:54:00,
2014-04-17 00:59:00,22.2,15.8,30.68,West,270,0.0,0.0,76,0.00,,,0.00,WUHU216HW,2014-04-17 04:59:00,
2014-04-17 01:05:00,22.2,15.8,30.68,West,270,0.0,0.0,76,0.00,,,0.00,WUHU216HW,2014-04-17 05:05:00,
2014-04-17 01:10:00,22.1,15.6,30.69,West,270,0.0,0.0,76,0.00,,,0.00,WUHU216HW,2014-04-17 05:10:00,
2014-04-17 01:15:00,21.9,15.7,30.69,West,270,0.0,0.0,77,0.00,,,0.00,WUHU216HW,2014-04-17 05:15:00,
2014-04-17 01:20:00,21.7,15.6,30.69,West,270,0.0,0.0,77,0.00,,,0.00,WUHU216HW,2014-04-17 05:20:00,
2014-04-17 01:25:00,21.9,15.7,30.69,West,270,0.0,0.0,77,0.00,,,0.00,WUHU216HW,2014-04-17 05:25:00,
2014-04-17 01:30:00,21.9,15.7,30.69,West,270,0.0,0.0,77,0.00,,,0.00,WUHU216HW,2014-04-17 05:30:00,
2014-04-17 01:35:00,21.9,15.7,30.69,West,270,0.0,0.0,77,0.00,,,0.00,WUHU216HW,2014-04-17 05:35:00,
2014-04-17 01:40:00,21.9,15.7,30.69,WSW,248,0.0,0.0,77,0.00,,,0.00,WUHU216HW,2014-04-17 05:40:00,
2014-04-17 01:45:00,21.9,15.7,30.68,South,180,0.0,0.0,77,0.00,,,0.00,WUHU216HW,2014-04-17 05:45:00,
2014-04-17 01:51:00,21.7,15.6,30.68,SW,225,0.0,0.0,77,0.00,,,0.00,WUHU216HW,2014-04-17 05:51:00,
2014-04-17 01:56:00,21.7,15.6,30.69,SW,225,0.0,0.0,77,0.00,,,0.00,WUHU216HW,2014-04-17 05:56:00,
2014-04-17 02:01:00,21.5,15.4,30.69,SSW,203,0.0,0.0,77,0.00,,,0.00,WUHU216HW,2014-04-17 06:01:00,
2014-04-17 02:06:00,21.3,14.9,30.69,SSW,203,0.0,0.0,76,0.00,,,0.00,WUHU216HW,2014-04-17 06:06:00,
2014-04-17 02:11:00,21.3,15.2,30.69,SSW,203,0.0,0.0,77,0.00,,,0.00,WUHU216HW,2014-04-17 06:11:00,
2014-04-17 02:16:00,21.0,14.8,30.69,SSW,203,0.0,0.0,77,0.00,,,0.00,WUHU216HW,2014-04-17 06:16:00,
2014-04-17 02:21:00,21.0,14.8,30.69,SSW,203,0.0,0.0,77,0.00,,,0.00,WUHU216HW,2014-04-17 06:21:00,
2014-04-17 02:26:00,21.0,14.8,30.69,SSW,203,0.0,0.0,77,0.00,,,0.00,WUHU216HW,2014-04-17 06:26:00,
2014-04-17 02:31:00,21.0,14.8,30.70,SSW,203,0.0,0.0,77,0.00,,,0.00,WUHU216HW,2014-04-17 06:31:00,
2014-04-17 02:36:00,21.0,14.8,30.70,SSW,203,0.0,0.0,77,0.00,,,0.00,WUHU216HW,2014-04-17 06:36:00,
2014-04-17 02:41:00,20.8,14.7,30.70,SSW,203,0.0,0.0,77,0.00,,,0.00,WUHU216HW,2014-04-17 06:41:00,
2014-04-17 02:47:00,20.8,14.7,30.70,SSW,203,0.0,0.0,77,0.00,,,0.00,WUHU216HW,2014-04-17 06:47:00,
2014-04-17 02:52:00,20.4,14.3,30.71,SSW,203,0.0,0.0,77,0.00,,,0.00,WUHU216HW,2014-04-17 06:52:00,
2014-04-17 02:57:00,20.4,14.3,30.72,SSW,203,0.0,0.0,77,0.00,,,0.00,WUHU216HW,2014-04-17 06:57:00,
2014-04-17 03:02:00,20.4,14.3,30.72,SSW,203,0.0,0.0,77,0.00,,,0.00,WUHU216HW,2014-04-17 07:02:00,
2014-04-17 03:07:00,20.4,14.3,30.72,SSW,203,0.0,0.0,77,0.00,,,0.00,WUHU216HW,2014-04-17 07:07:00,
2014-04-17 03:12:00,20.4,14.3,30.72,SSW,203,0.0,0.0,77,0.00,,,0.00,WUHU216HW,2014-04-17 07:12:00,
2014-04-17 03:17:00,20.4,14.3,30.72,SSW,203,0.0,0.0,77,0.00,,,0.00,WUHU216HW,2014-04-17 07:17:00,
2014-04-17 03:22:00,20.4,14.3,30.72,SSW,203,0.0,0.0,77,0.00,,,0.00,WUHU216HW,2014-04-17 07:22:00,
2014-04-17 03:27:00,20.4,14.3,30.72,SSW,203,0.0,0.0,77,0.00,,,0.00,WUHU216HW,2014-04-17 07:27:00,
2014-04-17 03:32:00,20.3,14.1,30.72,SSW,203,0.0,0.0,77,0.00,,,0.00,WUHU216HW,2014-04-17 07:32:00,
2014-04-17 03:38:00,20.1,14.2,30.72,SSW,203,0.0,0.0,78,0.00,,,0.00,WUHU216HW,2014-04-17 07:38:00,
2014-04-17 03:43:00,20.1,14.2,30.72,SSW,203,0.0,0.0,78,0.00,,,0.00,WUHU216HW,2014-04-17 07:43:00,
2014-04-17 03:48:00,20.1,14.2,30.72,SSW,203,0.0,0.0,78,0.00,,,0.00,WUHU216HW,2014-04-17 07:48:00,
2014-04-17 03:53:00,20.1,14.2,30.73,SSW,203,0.0,0.0,78,0.00,,,0.00,WUHU216HW,2014-04-17 07:53:00,
2014-04-17 03:58:00,19.9,14.1,30.73,SSW,203,0.0,0.0,78,0.00,,,0.00,WUHU216HW,2014-04-17 07:58:00,
2014-04-17 04:03:00,19.9,14.1,30.73,SSW,203,0.0,0.0,78,0.00,,,0.00,WUHU216HW,2014-04-17 08:03:00,
2014-04-17 04:08:00,19.9,14.1,30.73,SSW,203,0.0,0.0,78,0.00,,,0.00,WUHU216HW,2014-04-17 08:08:00,
2014-04-17 04:13:00,19.7,13.9,30.74,SSW,203,0.0,0.0,78,0.00,,,0.00,WUHU216HW,2014-04-17 08:13:00,
2014-04-17 04:18:00,19.5,13.7,30.74,SSW,203,0.0,0.0,78,0.00,,,0.00,WUHU216HW,2014-04-17 08:18:00,
2014-04-17 04:23:00,19.5,13.7,30.74,SSW,203,0.0,0.0,78,0.00,,,0.00,WUHU216HW,2014-04-17 08:23:00,
2014-04-17 04:28:00,19.4,13.5,30.74,SSW,203,0.0,0.0,78,0.00,,,0.00,WUHU216HW,2014-04-17 08:28:00,
2014-04-17 04:33:00,19.2,13.3,30.74,SSW,203,0.0,0.0,78,0.00,,,0.00,WUHU216HW,2014-04-17 08:33:00,
2014-04-17 04:38:00,19.2,13.3,30.74,SSW,203,0.0,0.0,78,0.00,,,0.00,WUHU216HW,2014-04-17 08:38:00,
2014-04-17 04:44:00,19.2,13.3,30.74,SSW,203,0.0,0.0,78,0.00,,,0.00,WUHU216HW,2014-04-17 08:44:00,
2014-04-17 04:49:00,19.2,13.3,30.74,SSW,203,0.0,0.0,78,0.00,,,0.00,WUHU216HW,2014-04-17 08:49:00,
2014-04-17 04:54:00,19.2,13.3,30.75,SSW,203,0.0,0.0,78,0.00,,,0.00,WUHU216HW,2014-04-17 08:54:00,
2014-04-17 04:59:00,19.0,13.2,30.74,SSW,203,0.0,0.0,78,0.00,,,0.00,WUHU216HW,2014-04-17 08:59:00,
2014-04-17 05:04:00,19.0,13.2,30.75,SSW,203,0.0,0.0,78,0.00,,,0.00,WUHU216HW,2014-04-17 09:04:00,
2014-04-17 05:09:00,18.8,13.0,30.74,SSW,203,0.0,0.0,78,0.00,,,0.00,WUHU216HW,2014-04-17 09:09:00,
2014-04-17 05:14:00,18.6,12.8,30.75,SSW,203,0.0,0.0,78,0.00,,,0.00,WUHU216HW,2014-04-17 09:14:00,